createdAt,value
2019-02-17T00:05:51.651Z,21.20
2019-02-17T00:08:21.318Z,21.93
2019-02-17T00:10:50.929Z,23.73
2019-02-17T00:13:20.604Z,23.50
2019-02-17T00:15:50.180Z,21.70
2019-02-17T00:18:20.089Z,25.23
2019-02-17T00:20:49.707Z,25.20
2019-02-17T00:23:19.383Z,21.33
2019-02-17T00:25:49.054Z,23.90
2019-02-17T00:28:18.765Z,25.43
2019-02-17T00:30:48.409Z,24.60
2019-02-17T00:33:18.151Z,28.30
2019-02-17T00:35:47.751Z,26.90
2019-02-17T00:38:17.431Z,30.93
2019-02-17T00:40:47.108Z,27.33
2019-02-17T00:43:16.774Z,23.67
2019-02-17T00:45:46.362Z,23.87
2019-02-17T00:48:16.027Z,27.47
2019-02-17T00:50:45.697Z,35.87
2019-02-17T00:53:15.368Z,32.07
2019-02-17T00:55:44.964Z,39.20
2019-02-17T00:58:14.632Z,37.67
2019-02-17T01:00:44.381Z,43.83
2019-02-17T01:03:14.028Z,44.27
2019-02-17T01:05:43.800Z,41.73
2019-02-17T01:08:13.471Z,44.93
2019-02-17T01:10:43.135Z,40.80
2019-02-17T01:13:12.761Z,51.00
2019-02-17T01:15:42.439Z,43.87
2019-02-17T01:18:12.147Z,38.00
2019-02-17T01:20:41.801Z,28.97
2019-02-17T01:23:11.393Z,40.17
2019-02-17T01:25:41.067Z,36.90
2019-02-17T01:28:10.677Z,35.37
2019-02-17T01:30:40.337Z,34.03
2019-02-17T01:33:09.944Z,33.77
2019-02-17T01:35:39.590Z,32.20
2019-02-17T01:38:09.251Z,34.03
2019-02-17T01:40:38.901Z,29.47
2019-02-17T01:43:08.549Z,30.30
2019-02-17T01:45:38.192Z,21.53
2019-02-17T01:48:07.855Z,28.97
2019-02-17T01:50:37.468Z,27.70
2019-02-17T01:53:07.055Z,23.97
2019-02-17T01:55:36.721Z,25.73
2019-02-17T01:58:06.324Z,24.17
2019-02-17T02:00:36.060Z,27.70
2019-02-17T02:03:05.975Z,20.00
2019-02-17T02:05:35.638Z,19.87
2019-02-17T02:08:05.258Z,21.73
2019-02-17T02:10:34.909Z,22.57
2019-02-17T02:13:04.525Z,23.43
2019-02-17T02:15:34.165Z,19.00
2019-02-17T02:18:03.771Z,27.57
2019-02-17T02:20:33.423Z,27.17
2019-02-17T02:23:03.035Z,24.50
2019-02-17T02:25:32.714Z,19.07
2019-02-17T02:28:02.305Z,15.60
2019-02-17T02:30:31.966Z,18.07
2019-02-17T02:33:01.581Z,17.53
2019-02-17T02:35:31.285Z,17.73
2019-02-17T02:38:00.899Z,18.17
2019-02-17T02:40:30.570Z,15.87
2019-02-17T02:43:00.172Z,15.53
2019-02-17T02:45:29.751Z,21.40
2019-02-17T02:47:59.391Z,20.80
2019-02-17T02:50:29.147Z,17.10
2019-02-17T02:52:58.747Z,19.80
2019-02-17T02:55:28.337Z,17.20
2019-02-17T02:57:57.976Z,15.83
2019-02-17T03:00:27.571Z,17.47
2019-02-17T03:02:57.239Z,15.60
2019-02-17T03:05:26.840Z,19.67
2019-02-17T03:07:56.496Z,18.50
2019-02-17T03:10:26.093Z,17.67
2019-02-17T03:12:55.770Z,16.67
2019-02-17T03:15:25.400Z,17.20
2019-02-17T03:17:55.073Z,18.90
2019-02-17T03:20:24.683Z,22.43
2019-02-17T03:22:54.343Z,15.87
2019-02-17T03:25:24.003Z,20.60
2019-02-17T03:27:53.670Z,13.60
2019-02-17T03:30:23.291Z,20.33
2019-02-17T03:32:52.888Z,16.53
2019-02-17T03:35:22.609Z,19.23
2019-02-17T03:37:55.054Z,18.33
2019-02-17T03:40:24.716Z,17.37
2019-02-17T03:42:54.379Z,15.80
2019-02-17T03:45:24.043Z,19.70
2019-02-17T03:47:53.690Z,17.03
2019-02-17T03:50:23.285Z,16.93
2019-02-17T03:52:52.926Z,16.93
2019-02-17T03:55:22.521Z,18.87
2019-02-17T03:57:52.256Z,15.40
2019-02-17T04:00:21.890Z,15.40
2019-02-17T04:02:51.576Z,15.30
2019-02-17T04:05:21.168Z,14.33
2019-02-17T04:07:50.824Z,15.27
2019-02-17T04:10:20.425Z,15.60
2019-02-17T04:12:50.093Z,19.07
2019-02-17T04:15:19.688Z,19.17
2019-02-17T04:17:49.287Z,15.20
2019-02-17T04:20:18.929Z,15.83
2019-02-17T04:22:48.537Z,14.97
2019-02-17T04:25:18.200Z,18.77
2019-02-17T04:27:47.800Z,15.40
2019-02-17T04:30:28.155Z,12.23
2019-02-17T04:32:48.688Z,13.80
2019-02-17T04:35:18.420Z,16.20
2019-02-17T04:37:48.074Z,13.60
2019-02-17T04:40:17.718Z,13.67
2019-02-17T04:42:47.289Z,16.20
2019-02-17T04:45:16.946Z,16.30
2019-02-17T04:47:46.631Z,12.77
2019-02-17T04:50:16.272Z,12.53
2019-02-17T04:52:45.932Z,10.60
2019-02-17T04:55:15.576Z,14.33
2019-02-17T04:57:45.155Z,16.07
2019-02-17T05:00:14.794Z,19.63
2019-02-17T05:02:44.476Z,14.83
2019-02-17T05:05:14.096Z,15.63
2019-02-17T05:07:43.712Z,10.93
2019-02-17T05:10:13.339Z,12.03
2019-02-17T05:12:43.008Z,15.13
2019-02-17T05:15:12.616Z,13.20
2019-02-17T05:17:42.292Z,13.77
2019-02-17T05:20:11.921Z,14.87
2019-02-17T05:22:41.543Z,18.10
2019-02-17T05:25:11.194Z,15.40
2019-02-17T05:27:40.801Z,15.60
2019-02-17T05:30:10.557Z,14.47
2019-02-17T05:32:40.165Z,15.83
2019-02-17T05:35:09.846Z,16.73
2019-02-17T05:37:39.450Z,18.67
2019-02-17T05:40:09.100Z,17.03
2019-02-17T05:42:38.763Z,15.27
2019-02-17T05:45:08.452Z,17.53
2019-02-17T05:47:38.112Z,18.97
2019-02-17T05:50:07.864Z,18.27
2019-02-17T05:52:37.496Z,17.13
2019-02-17T05:55:07.624Z,13.27
2019-02-17T05:57:37.275Z,19.50
2019-02-17T06:00:07.994Z,14.37
2019-02-17T06:02:37.652Z,13.50
2019-02-17T06:05:08.155Z,13.23
2019-02-17T06:07:37.818Z,16.70
2019-02-17T06:10:08.617Z,15.23
2019-02-17T06:12:38.244Z,16.83
2019-02-17T06:15:07.960Z,17.70
2019-02-17T06:17:37.646Z,12.43
2019-02-17T06:20:07.922Z,15.40
2019-02-17T06:22:37.713Z,15.63
2019-02-17T06:25:07.381Z,14.87
2019-02-17T06:27:37.023Z,19.50
2019-02-17T06:30:07.080Z,15.03
2019-02-17T06:32:36.710Z,15.57
2019-02-17T06:35:06.516Z,13.77
2019-02-17T06:37:36.189Z,17.03
2019-02-17T06:40:06.163Z,13.97
2019-02-17T06:42:35.847Z,15.37
2019-02-17T06:45:06.028Z,14.93
2019-02-17T06:47:36.835Z,17.17
2019-02-17T06:50:07.229Z,17.27
2019-02-17T06:52:36.981Z,16.83
2019-02-17T06:55:18.545Z,16.07
2019-02-17T06:57:48.481Z,13.83
2019-02-17T07:00:46.888Z,15.57
2019-02-17T07:03:16.562Z,23.80
2019-02-17T07:06:17.434Z,19.27
2019-02-17T07:08:47.125Z,16.53
2019-02-17T07:11:16.760Z,16.30
2019-02-17T07:13:46.369Z,17.30
2019-02-17T07:16:16.125Z,17.90
2019-02-17T07:18:45.755Z,17.87
2019-02-17T07:21:15.490Z,15.90
2019-02-17T07:23:45.164Z,16.67
2019-02-17T07:26:17.028Z,13.13
2019-02-17T07:28:46.190Z,13.77
2019-02-17T07:31:15.891Z,15.17
2019-02-17T07:33:45.517Z,14.77
2019-02-17T07:36:16.406Z,13.23
2019-02-17T07:38:46.113Z,13.80
2019-02-17T07:41:15.849Z,14.70
2019-02-17T07:43:45.764Z,14.17
2019-02-17T07:46:15.520Z,12.87
2019-02-17T07:48:45.989Z,18.60
2019-02-17T07:51:15.889Z,15.03
2019-02-17T07:53:45.593Z,15.07
2019-02-17T07:56:15.808Z,13.37
2019-02-17T07:58:45.488Z,12.83
2019-02-17T08:01:15.279Z,12.17
2019-02-17T08:03:45.096Z,12.17
2019-02-17T08:06:15.013Z,11.53
2019-02-17T08:08:44.753Z,12.17
2019-02-17T08:11:14.576Z,15.80
2019-02-17T08:13:44.422Z,16.53
2019-02-17T08:16:14.728Z,14.23
2019-02-17T08:18:45.112Z,14.03
2019-02-17T08:21:15.004Z,12.33
2019-02-17T08:23:45.077Z,15.67
2019-02-17T08:26:16.241Z,16.07
2019-02-17T08:28:46.168Z,13.33
2019-02-17T08:31:15.986Z,15.60
2019-02-17T08:33:45.929Z,16.60
2019-02-17T08:36:17.153Z,15.90
2019-02-17T08:38:47.184Z,17.27
2019-02-17T08:41:17.069Z,18.27
2019-02-17T08:43:47.135Z,17.43
2019-02-17T08:46:17.302Z,17.57
2019-02-17T08:48:47.167Z,20.03
2019-02-17T08:51:19.455Z,18.37
2019-02-17T08:53:52.477Z,21.30
2019-02-17T08:56:22.595Z,17.57
2019-02-17T08:58:52.599Z,19.53
2019-02-17T09:01:22.351Z,19.17
2019-02-17T09:03:56.324Z,21.73
2019-02-17T09:06:26.449Z,20.67
2019-02-17T09:09:03.494Z,18.40
2019-02-17T09:11:33.858Z,20.30
2019-02-17T09:14:03.972Z,17.67
2019-02-17T09:16:36.593Z,19.23
2019-02-17T09:19:13.792Z,22.40
2019-02-17T09:21:44.078Z,16.83
2019-02-17T09:24:14.847Z,17.93
2019-02-17T09:26:45.042Z,22.10
2019-02-17T09:29:15.919Z,19.87
2019-02-17T09:31:45.804Z,18.30
2019-02-17T09:34:16.444Z,21.60
2019-02-17T09:36:47.114Z,19.57
2019-02-17T09:39:16.832Z,22.30
2019-02-17T09:41:46.505Z,19.47
2019-02-17T09:44:16.163Z,20.27
2019-02-17T09:46:45.926Z,20.33
2019-02-17T09:49:16.634Z,20.50
2019-02-17T09:51:47.420Z,19.77
2019-02-17T09:54:17.951Z,21.33
2019-02-17T09:56:48.784Z,22.43
2019-02-17T09:59:18.911Z,21.13
2019-02-17T10:01:51.931Z,19.43
2019-02-17T10:04:21.708Z,21.27
2019-02-17T10:06:51.666Z,19.93
2019-02-17T10:09:21.892Z,19.67
2019-02-17T10:11:51.660Z,16.93
2019-02-17T10:14:21.355Z,19.37
2019-02-17T10:16:53.151Z,21.97
2019-02-17T10:19:22.822Z,20.70
2019-02-17T10:21:55.968Z,19.27
2019-02-17T10:24:25.590Z,21.80
2019-02-17T10:26:55.318Z,17.90
2019-02-17T10:29:25.069Z,19.00
2019-02-17T10:31:54.691Z,22.07
2019-02-17T10:34:24.471Z,18.87
2019-02-17T10:36:54.195Z,19.80
2019-02-17T10:39:23.993Z,20.70
2019-02-17T10:41:53.718Z,21.87
2019-02-17T10:44:23.498Z,20.80
2019-02-17T10:46:53.180Z,19.20
2019-02-17T10:49:24.145Z,20.43
2019-02-17T10:51:53.791Z,15.33
2019-02-17T10:54:23.524Z,18.50
2019-02-17T10:56:53.204Z,21.57
2019-02-17T10:59:23.195Z,20.33
2019-02-17T11:01:52.893Z,17.97
2019-02-17T11:04:23.176Z,18.67
2019-02-17T11:06:52.936Z,19.07
2019-02-17T11:09:23.717Z,19.33
2019-02-17T11:11:53.606Z,21.43
2019-02-17T11:14:23.300Z,21.57
2019-02-17T11:16:53.151Z,19.67
2019-02-17T11:19:22.826Z,19.27
2019-02-17T11:21:52.439Z,19.50
2019-02-17T11:24:23.062Z,21.07
2019-02-17T11:26:52.865Z,19.30
2019-02-17T11:29:22.587Z,22.03
2019-02-17T11:31:52.210Z,23.37
2019-02-17T11:34:22.003Z,21.33
2019-02-17T11:36:51.711Z,22.70
2019-02-17T11:39:21.888Z,24.17
2019-02-17T11:41:51.628Z,23.57
2019-02-17T11:44:21.349Z,26.10
2019-02-17T11:46:51.858Z,22.73
2019-02-17T11:49:21.652Z,20.93
2019-02-17T11:51:51.538Z,21.77
2019-02-17T11:54:21.223Z,27.10
2019-02-17T11:56:50.925Z,21.00
2019-02-17T11:59:20.670Z,24.47
2019-02-17T12:01:50.388Z,22.93
2019-02-17T12:04:20.052Z,22.73
2019-02-17T12:06:49.920Z,22.70
2019-02-17T12:09:19.590Z,19.97
2019-02-17T12:11:49.404Z,20.53
2019-02-17T12:14:19.228Z,22.23
2019-02-17T12:16:50.071Z,18.43
2019-02-17T12:19:19.788Z,23.67
2019-02-17T12:21:56.973Z,20.90
2019-02-17T12:24:30.695Z,22.70
2019-02-17T12:27:19.650Z,23.33
2019-02-17T12:30:03.162Z,19.60
2019-02-17T12:32:33.005Z,20.00
2019-02-17T12:35:02.690Z,20.03
2019-02-17T12:37:32.616Z,19.97
2019-02-17T12:40:02.295Z,21.10
2019-02-17T12:42:33.318Z,20.10
2019-02-17T12:45:03.022Z,16.33
2019-02-17T12:47:32.791Z,20.33
2019-02-17T12:50:02.456Z,20.20
2019-02-17T12:52:33.320Z,20.70
2019-02-17T12:55:03.943Z,20.73
2019-02-17T12:57:34.457Z,20.20
2019-02-17T13:00:04.457Z,25.30
2019-02-17T13:02:35.709Z,18.90
2019-02-17T13:05:05.886Z,24.07
2019-02-17T13:07:35.594Z,22.17
2019-02-17T13:10:06.724Z,19.40
2019-02-17T13:12:36.487Z,17.23
2019-02-17T13:15:07.224Z,19.93
2019-02-17T13:17:36.916Z,18.07
2019-02-17T13:20:08.664Z,23.07
2019-02-17T13:22:39.130Z,25.30
2019-02-17T13:25:13.442Z,20.57
2019-02-17T13:27:43.335Z,21.43
2019-02-17T13:30:26.668Z,17.73
2019-02-17T13:32:56.322Z,20.17
2019-02-17T13:35:26.806Z,21.00
2019-02-17T13:38:08.050Z,18.57
2019-02-17T13:40:38.824Z,23.00
2019-02-17T13:43:11.848Z,19.33
2019-02-17T13:45:44.737Z,20.77
2019-02-17T13:48:17.946Z,21.73
2019-02-17T13:50:48.218Z,18.77
2019-02-17T13:53:18.209Z,17.73
2019-02-17T13:55:49.135Z,19.83
2019-02-17T13:58:19.175Z,19.47
2019-02-17T14:00:48.796Z,17.60
2019-02-17T14:03:18.633Z,14.77
2019-02-17T14:05:48.422Z,15.57
2019-02-17T14:08:18.271Z,16.57
2019-02-17T14:10:47.947Z,16.37
2019-02-17T14:13:17.608Z,17.87
2019-02-17T14:15:47.296Z,20.60
2019-02-17T14:18:17.010Z,15.53
2019-02-17T14:20:46.633Z,18.40
2019-02-17T14:23:18.382Z,18.37
2019-02-17T14:25:51.308Z,17.47
2019-02-17T14:28:21.073Z,18.57
2019-02-17T14:30:50.788Z,17.40
2019-02-17T14:33:20.401Z,18.20
2019-02-17T14:35:50.262Z,18.20
2019-02-17T14:38:19.980Z,17.50
2019-02-17T14:40:49.690Z,16.07
2019-02-17T14:43:19.315Z,24.07
2019-02-17T14:45:48.924Z,18.03
2019-02-17T14:48:18.592Z,16.77
2019-02-17T14:50:48.263Z,17.50
2019-02-17T14:53:17.949Z,15.70
2019-02-17T14:55:48.022Z,14.53
2019-02-17T14:58:18.836Z,13.73
2019-02-17T15:00:50.028Z,17.70
2019-02-17T15:03:19.697Z,17.00
2019-02-17T15:05:49.341Z,17.23
2019-02-17T15:08:19.036Z,17.33
2019-02-17T15:10:48.795Z,16.50
2019-02-17T15:13:24.388Z,16.23
2019-02-17T15:15:49.795Z,15.90
2019-02-17T15:18:19.531Z,13.97
2019-02-17T15:20:49.558Z,16.40
2019-02-17T15:23:19.216Z,15.40
2019-02-17T15:25:48.907Z,12.87
2019-02-17T15:28:18.540Z,11.97
2019-02-17T15:30:48.324Z,16.73
2019-02-17T15:33:18.260Z,14.67
2019-02-17T15:35:48.458Z,11.37
2019-02-17T15:38:18.114Z,17.53
2019-02-17T15:40:48.032Z,11.43
2019-02-17T15:43:17.889Z,12.23
2019-02-17T15:45:47.585Z,13.90
2019-02-17T15:48:17.257Z,9.77
2019-02-17T15:50:49.369Z,11.70
2019-02-17T15:53:19.046Z,10.43
2019-02-17T15:55:48.703Z,11.93
2019-02-17T15:58:18.279Z,17.27
2019-02-17T16:00:49.147Z,14.43
2019-02-17T16:03:26.022Z,14.40
2019-02-17T16:06:00.809Z,14.13
2019-02-17T16:08:34.206Z,19.13
2019-02-17T16:11:11.201Z,19.40
2019-02-17T16:13:48.606Z,23.00
2019-02-17T16:16:18.515Z,17.80
2019-02-17T16:18:48.288Z,19.07
2019-02-17T16:21:18.966Z,15.10
2019-02-17T16:23:49.095Z,16.70
2019-02-17T16:26:18.742Z,19.40
2019-02-17T16:28:48.433Z,17.40
2019-02-17T16:31:18.090Z,17.80
2019-02-17T16:33:48.237Z,21.07
2019-02-17T16:36:18.081Z,16.20
2019-02-17T16:38:47.706Z,27.73
2019-02-17T16:41:17.781Z,40.70
2019-02-17T16:43:47.515Z,42.90
2019-02-17T16:46:17.462Z,53.10
2019-02-17T16:48:47.779Z,33.97
2019-02-17T16:51:17.575Z,25.17
2019-02-17T16:53:47.287Z,23.70
2019-02-17T16:56:17.040Z,27.50
2019-02-17T16:58:46.859Z,29.77
2019-02-17T17:01:16.523Z,26.93
2019-02-17T17:03:46.367Z,27.23
2019-02-17T17:06:17.251Z,23.77
2019-02-17T17:08:47.099Z,20.63
2019-02-17T17:11:17.817Z,22.77
2019-02-17T17:13:47.454Z,18.33
2019-02-17T17:16:17.407Z,22.17
2019-02-17T17:18:47.517Z,28.60
2019-02-17T17:21:17.214Z,127.60
2019-02-17T17:23:46.831Z,28.63
2019-02-17T17:26:23.791Z,26.57
2019-02-17T17:28:58.068Z,24.53
2019-02-17T17:31:27.747Z,27.27
2019-02-17T17:33:57.383Z,37.60
2019-02-17T17:36:27.087Z,24.13
2019-02-17T17:38:56.770Z,23.27
2019-02-17T17:41:26.472Z,18.07
2019-02-17T17:43:56.131Z,20.03
2019-02-17T17:46:25.951Z,12.57
2019-02-17T17:48:55.625Z,19.00
2019-02-17T17:51:25.332Z,14.87
2019-02-17T17:53:55.113Z,16.67
2019-02-17T17:56:24.894Z,14.40
2019-02-17T17:58:54.723Z,12.70
2019-02-17T18:01:26.671Z,16.37
2019-02-17T18:03:56.298Z,12.33
2019-02-17T18:06:26.527Z,10.40
2019-02-17T18:08:56.742Z,14.27
2019-02-17T18:11:26.395Z,14.50
2019-02-17T18:13:56.087Z,15.33
2019-02-17T18:16:25.876Z,15.87
2019-02-17T18:18:55.712Z,14.33
2019-02-17T18:21:26.014Z,10.67
2019-02-17T18:23:55.726Z,10.23
2019-02-17T18:26:25.379Z,12.50
2019-02-17T18:28:55.049Z,12.50
2019-02-17T18:31:24.734Z,14.53
2019-02-17T18:33:54.480Z,15.67
2019-02-17T18:36:24.430Z,14.33
2019-02-17T18:38:54.502Z,14.63
2019-02-17T18:41:24.101Z,14.77
2019-02-17T18:43:54.118Z,13.47
2019-02-17T18:46:26.369Z,15.43
2019-02-17T18:48:55.683Z,15.63
2019-02-17T18:51:25.620Z,19.20
2019-02-17T18:53:56.800Z,18.43
2019-02-17T18:56:26.525Z,20.97
2019-02-17T18:58:56.175Z,22.27
2019-02-17T19:01:27.284Z,21.17
2019-02-17T19:03:57.006Z,20.87
2019-02-17T19:06:26.732Z,31.47
2019-02-17T19:08:56.446Z,26.23
2019-02-17T19:11:26.227Z,39.87
2019-02-17T19:13:56.044Z,49.77
2019-02-17T19:16:25.711Z,50.63
2019-02-17T19:18:57.465Z,64.00
2019-02-17T19:21:27.450Z,59.30
2019-02-17T19:23:57.232Z,80.83
2019-02-17T19:26:29.511Z,66.23
2019-02-17T19:29:02.011Z,106.47
2019-02-17T19:31:32.064Z,98.83
2019-02-17T19:34:05.374Z,108.23
2019-02-17T19:36:37.123Z,108.30
2019-02-17T19:39:07.500Z,98.87
2019-02-17T19:41:37.239Z,97.87
2019-02-17T19:44:07.923Z,107.33
2019-02-17T19:46:37.686Z,104.27
2019-02-17T19:49:07.304Z,98.20
2019-02-17T19:51:37.660Z,96.53
2019-02-17T19:54:07.687Z,85.33
2019-02-17T19:56:39.734Z,90.60
2019-02-17T19:59:09.303Z,94.50
2019-02-17T20:01:43.014Z,79.40
2019-02-17T20:04:31.030Z,78.23
2019-02-17T20:07:02.348Z,79.43
2019-02-17T20:09:32.071Z,71.83
2019-02-17T20:12:02.558Z,62.93
2019-02-17T20:14:32.577Z,73.50
2019-02-17T20:17:02.226Z,70.10
2019-02-17T20:19:32.662Z,64.37
2019-02-17T20:22:03.332Z,69.83
2019-02-17T20:24:33.034Z,66.80
2019-02-17T20:27:02.694Z,70.97
2019-02-17T20:29:32.383Z,72.47
2019-02-17T20:32:03.119Z,70.03
2019-02-17T20:34:32.904Z,69.27
2019-02-17T20:37:05.603Z,62.83
2019-02-17T20:39:35.084Z,71.83
2019-02-17T20:42:04.744Z,62.40
2019-02-17T20:44:34.653Z,63.47
2019-02-17T20:47:04.374Z,59.20
2019-02-17T20:49:33.978Z,59.17
2019-02-17T20:52:05.909Z,56.53
2019-02-17T20:54:35.601Z,54.43
2019-02-17T20:57:05.469Z,51.10
2019-02-17T20:59:35.130Z,52.93
2019-02-17T21:02:05.851Z,55.33
2019-02-17T21:04:35.483Z,52.40
2019-02-17T21:07:05.298Z,46.90
2019-02-17T21:09:35.085Z,44.53
2019-02-17T21:12:04.775Z,53.80
2019-02-17T21:14:34.422Z,46.97
2019-02-17T21:17:06.310Z,52.33
2019-02-17T21:19:36.259Z,53.33
2019-02-17T21:22:06.960Z,62.37
2019-02-17T21:24:36.587Z,57.40
2019-02-17T21:27:06.312Z,44.93
2019-02-17T21:29:37.306Z,43.20
2019-02-17T21:32:06.963Z,39.43
2019-02-17T21:34:36.766Z,42.20
2019-02-17T21:37:06.426Z,43.67
2019-02-17T21:39:36.083Z,43.50
2019-02-17T21:42:06.044Z,51.37
2019-02-17T21:44:35.715Z,39.17
2019-02-17T21:47:06.215Z,41.33
2019-02-17T21:49:35.818Z,43.60
2019-02-17T21:52:05.566Z,39.33
2019-02-17T21:54:35.398Z,38.93
2019-02-17T21:57:05.092Z,40.93
2019-02-17T21:59:34.851Z,35.10
2019-02-17T22:02:04.472Z,41.10
2019-02-17T22:04:35.819Z,40.70
2019-02-17T22:07:05.427Z,37.80
2019-02-17T22:09:35.064Z,35.57
2019-02-17T22:12:05.697Z,36.77
2019-02-17T22:14:35.325Z,37.23
2019-02-17T22:17:04.987Z,36.50
2019-02-17T22:19:34.722Z,31.87
2019-02-17T22:22:04.374Z,34.53
2019-02-17T22:24:34.034Z,33.87
2019-02-17T22:27:03.623Z,33.37
2019-02-17T22:29:33.365Z,30.67
2019-02-17T22:32:03.614Z,32.80
2019-02-17T22:34:33.261Z,32.53
2019-02-17T22:37:02.874Z,25.80
2019-02-17T22:39:32.601Z,31.07
2019-02-17T22:42:02.215Z,28.33
2019-02-17T22:44:31.890Z,32.20
2019-02-17T22:47:01.503Z,35.87
2019-02-17T22:49:31.205Z,33.20
2019-02-17T22:52:01.249Z,37.30
2019-02-17T22:54:30.915Z,40.50
2019-02-17T22:57:00.520Z,31.13
2019-02-17T22:59:30.173Z,37.63
2019-02-17T23:02:00.034Z,34.30
2019-02-17T23:04:29.647Z,35.23
2019-02-17T23:06:59.305Z,36.30
2019-02-17T23:09:29.302Z,36.03
2019-02-17T23:11:58.901Z,30.77
2019-02-17T23:14:28.569Z,35.27
2019-02-17T23:16:58.208Z,32.93
2019-02-17T23:19:27.852Z,33.10
2019-02-17T23:21:57.472Z,29.60
2019-02-17T23:24:27.380Z,37.20
2019-02-17T23:26:57.442Z,33.67
2019-02-17T23:29:27.048Z,30.70
2019-02-17T23:31:56.727Z,33.53
2019-02-17T23:34:26.322Z,36.67
2019-02-17T23:37:03.704Z,38.53
2019-02-17T23:39:27.412Z,33.13
2019-02-17T23:41:57.015Z,41.40
2019-02-17T23:44:26.688Z,38.27
2019-02-17T23:46:56.321Z,36.80
2019-02-17T23:49:26.003Z,29.90
2019-02-17T23:51:55.646Z,39.23
2019-02-17T23:54:25.236Z,37.70
2019-02-17T23:56:54.928Z,35.27
2019-02-17T23:59:24.594Z,32.97
